Time;durP1;ratioP1;P1;durP2;ratioP2;P2;SDS_P1;SDS_P2;PMS_P1;PMS_P2;Temp;Humidity;BMP_temperature;BMP_pressure;BME280_temperature;BME280_humidity;BME280_pressure;Samples;Min_cycle;Max_cycle;Signal;HPM_P1;HPM_P2
2022/08/01 00:01:16;;;;;;;26.83;17.02;;;18.20;99.90;;;;;;5070558;28;20508;-84
2022/08/01 00:03:42;;;;;;;29.20;17.77;;;18.20;99.90;;;;;;5045296;27;20318;-85
2022/08/01 00:06:08;;;;;;;25.77;16.65;;;18.20;99.90;;;;;;5062067;27;20075;-86
2022/08/01 00:08:34;;;;;;;24.73;16.08;;;18.20;99.90;;;;;;5040549;27;20569;-85
2022/08/01 00:11:00;;;;;;;28.70;16.40;;;18.20;99.90;;;;;;5070832;27;20043;-86
2022/08/01 00:13:27;;;;;;;25.85;17.27;;;18.20;99.90;;;;;;5085869;27;20047;-85
2022/08/01 00:15:53;;;;;;;27.45;17.27;;;18.10;99.90;;;;;;5071164;27;20591;-86
2022/08/01 00:18:19;;;;;;;21.85;16.45;;;18.20;99.90;;;;;;5090222;27;20080;-85
2022/08/01 00:20:45;;;;;;;25.17;17.45;;;18.10;99.90;;;;;;5095410;27;20047;-85
2022/08/01 00:23:11;;;;;;;27.95;17.85;;;18.20;99.90;;;;;;5061713;27;20086;-85
2022/08/01 00:25:37;;;;;;;28.08;18.15;;;18.20;99.90;;;;;;5054556;27;20807;-86
2022/08/01 00:28:08;;;;;;;29.35;18.73;;;18.20;99.90;;;;;;5083390;27;20047;-86
2022/08/01 00:30:35;;;;;;;32.15;19.20;;;18.20;99.90;;;;;;5104767;27;20506;-86
2022/08/01 00:33:02;;;;;;;27.33;17.98;;;18.20;99.90;;;;;;5086434;27;20046;-87
2022/08/01 00:35:28;;;;;;;33.80;18.90;;;18.30;99.90;;;;;;5071452;27;20059;-86
2022/08/01 00:37:54;;;;;;;33.72;19.70;;;18.20;99.90;;;;;;5035217;27;20130;-86
2022/08/01 00:40:21;;;;;;;29.63;17.40;;;18.20;99.90;;;;;;5089616;27;20050;-86
2022/08/01 00:42:47;;;;;;;25.00;16.92;;;18.20;99.90;;;;;;5061263;27;20043;-86
2022/08/01 00:45:13;;;;;;;25.55;16.70;;;18.20;99.90;;;;;;5074759;27;20114;-87
2022/08/01 00:47:40;;;;;;;25.90;16.73;;;18.20;99.90;;;;;;5072238;27;20035;-86
2022/08/01 00:50:07;;;;;;;29.83;17.23;;;18.10;99.90;;;;;;5079111;27;20073;-86
2022/08/01 00:52:34;;;;;;;24.17;15.75;;;18.10;99.90;;;;;;5088352;27;20538;-86
2022/08/01 00:55:00;;;;;;;24.45;15.45;;;18.10;99.90;;;;;;5069134;27;20042;-86
2022/08/01 00:57:27;;;;;;;21.67;15.23;;;18.10;99.90;;;;;;5104792;27;20054;-86
2022/08/01 00:59:53;;;;;;;21.92;13.80;;;18.10;99.90;;;;;;5073883;27;20489;-87
2022/08/01 01:02:20;;;;;;;21.13;14.55;;;18.10;99.90;;;;;;5092171;27;20413;-87
2022/08/01 01:04:46;;;;;;;23.13;14.45;;;18.10;99.90;;;;;;5087633;27;20039;-86
2022/08/01 01:07:29;;;;;;;21.52;13.57;;;18.00;99.90;;;;;;5063054;27;20035;-86
2022/08/01 01:10:02;;;;;;;18.92;12.88;;;18.00;99.90;;;;;;5081951;27;20019;-86
2022/08/01 01:12:29;;;;;;;18.73;12.02;;;18.00;99.90;;;;;;5093356;27;20115;-86
2022/08/01 01:15:05;;;;;;;17.48;11.23;;;18.00;99.90;;;;;;5111300;27;20042;-87
2022/08/01 01:18:01;;;;;;;19.15;11.80;;;18.00;99.90;;;;;;5095752;27;20049;-85
2022/08/01 01:20:33;;;;;;;20.70;12.82;;;17.90;99.90;;;;;;5068362;27;20462;-86
2022/08/01 01:23:17;;;;;;;16.25;12.38;;;17.90;99.90;;;;;;5069733;27;20761;-86
2022/08/01 01:25:58;;;;;;;16.33;11.73;;;17.90;99.90;;;;;;5070020;27;20506;-85
2022/08/01 01:28:32;;;;;;;18.00;12.32;;;17.90;99.90;;;;;;5101678;27;20034;-86
2022/08/01 01:31:01;;;;;;;19.25;11.80;;;17.90;99.90;;;;;;5086731;27;20055;-86
2022/08/01 01:33:31;;;;;;;17.00;11.93;;;17.90;99.90;;;;;;5067392;27;20041;-85
2022/08/01 01:36:03;;;;;;;20.33;12.10;;;17.90;99.90;;;;;;5069842;27;20073;-87
2022/08/01 01:38:34;;;;;;;19.40;11.00;;;17.90;99.90;;;;;;5102688;27;20062;-86
2022/08/01 01:41:03;;;;;;;17.25;11.25;;;17.90;99.90;;;;;;5073372;27;20121;-85
2022/08/01 01:43:32;;;;;;;17.33;11.05;;;17.90;99.90;;;;;;5071396;27;20051;-87
2022/08/01 01:45:58;;;;;;;17.33;11.35;;;17.90;99.90;;;;;;5086887;27;20047;-86
2022/08/01 01:48:26;;;;;;;20.10;11.82;;;17.90;99.90;;;;;;5064559;27;20146;-87
2022/08/01 01:50:56;;;;;;;14.52;9.90;;;17.90;99.90;;;;;;5083394;27;20126;-86
2022/08/01 01:53:23;;;;;;;16.45;10.85;;;17.90;99.90;;;;;;5084435;27;20043;-86
2022/08/01 01:55:54;;;;;;;13.85;8.75;;;17.90;99.90;;;;;;5080404;27;20102;-88
2022/08/01 01:58:21;;;;;;;16.90;10.48;;;17.90;99.90;;;;;;5069464;27;20039;-88
2022/08/01 02:00:49;;;;;;;14.55;8.60;;;17.90;99.90;;;;;;5072967;27;20038;-88
2022/08/01 02:03:17;;;;;;;14.18;8.48;;;17.90;99.90;;;;;;5072061;27;20049;-87
2022/08/01 02:05:44;;;;;;;15.52;8.27;;;17.90;99.90;;;;;;5069226;27;20095;-87
2022/08/01 02:08:14;;;;;;;9.68;6.97;;;17.90;99.90;;;;;;5042002;27;20084;-87
2022/08/01 02:13:32;;;;;;;10.25;6.47;;;17.90;99.90;;;;;;5109333;27;20138;-88
2022/08/01 02:15:59;;;;;;;11.18;6.00;;;17.80;99.90;;;;;;5091138;27;20046;-87
2022/08/01 02:18:25;;;;;;;8.00;5.78;;;17.80;99.90;;;;;;5079881;27;20075;-87
2022/08/01 02:20:54;;;;;;;8.55;5.72;;;17.80;99.90;;;;;;5051024;27;20050;-87
2022/08/01 02:23:22;;;;;;;9.30;5.97;;;17.80;99.90;;;;;;5088048;27;20086;-88
2022/08/01 02:25:53;;;;;;;9.75;6.15;;;17.90;99.90;;;;;;5104701;27;20049;-87
2022/08/01 02:28:28;;;;;;;8.93;6.10;;;17.90;99.90;;;;;;5080300;27;20438;-88
2022/08/01 02:31:05;;;;;;;8.77;6.20;;;17.80;99.90;;;;;;5087214;27;20031;-88
2022/08/01 02:33:37;;;;;;;12.15;6.85;;;17.80;99.90;;;;;;5101284;27;20086;-87
2022/08/01 02:36:05;;;;;;;9.82;6.40;;;17.80;99.90;;;;;;5099494;27;20051;-87
2022/08/01 02:38:37;;;;;;;9.15;7.13;;;17.80;99.90;;;;;;5087366;27;20498;-87
2022/08/01 02:41:09;;;;;;;10.38;7.55;;;17.80;99.90;;;;;;5061599;28;20046;-88
2022/08/01 02:43:40;;;;;;;9.48;7.32;;;17.80;99.90;;;;;;5101621;27;20497;-89
2022/08/01 02:46:08;;;;;;;9.48;6.95;;;17.80;99.90;;;;;;5084001;28;20155;-88
2022/08/01 02:48:38;;;;;;;10.75;7.03;;;17.80;99.90;;;;;;5067889;27;20413;-88
2022/08/01 02:51:06;;;;;;;9.82;6.93;;;17.80;99.90;;;;;;5103960;27;20049;-88
2022/08/01 02:53:36;;;;;;;10.32;7.43;;;17.80;99.90;;;;;;5087276;27;20043;-87
2022/08/01 02:56:06;;;;;;;9.98;7.28;;;17.80;99.90;;;;;;5104896;27;20069;-88
2022/08/01 02:58:35;;;;;;;10.75;7.78;;;17.80;99.90;;;;;;5101754;27;20506;-88
2022/08/01 03:01:01;;;;;;;9.63;7.28;;;17.80;99.90;;;;;;5068924;27;20054;-88
2022/08/01 03:03:29;;;;;;;9.25;6.13;;;17.70;99.90;;;;;;5088004;27;20043;-88
2022/08/01 03:05:57;;;;;;;9.52;5.70;;;17.70;99.90;;;;;;5060117;27;20041;-88
2022/08/01 03:08:28;;;;;;;9.32;5.00;;;17.70;99.90;;;;;;5123446;27;20039;-88
2022/08/01 03:10:56;;;;;;;6.50;4.45;;;17.70;99.90;;;;;;5088388;27;20030;-87
2022/08/01 03:13:24;;;;;;;9.60;4.53;;;17.60;99.90;;;;;;5073090;27;20335;-88
2022/08/01 03:15:52;;;;;;;7.63;4.03;;;17.60;99.90;;;;;;5067872;27;20494;-88
2022/08/01 03:18:19;;;;;;;8.23;4.18;;;17.60;99.90;;;;;;5091450;27;20042;-88
2022/08/01 03:20:46;;;;;;;8.65;4.18;;;17.50;99.90;;;;;;5102480;27;20126;-88
2022/08/01 03:23:13;;;;;;;7.78;3.90;;;17.50;99.90;;;;;;5074277;27;20047;-89
2022/08/01 03:25:42;;;;;;;10.55;4.15;;;17.50;99.90;;;;;;5072767;27;20039;-89
2022/08/01 03:28:13;;;;;;;10.20;4.00;;;17.50;99.90;;;;;;5082527;27;20118;-89
2022/08/01 03:30:40;;;;;;;7.63;3.88;;;17.50;99.90;;;;;;5100668;27;20061;-89
2022/08/01 03:33:07;;;;;;;6.85;3.70;;;17.50;99.90;;;;;;5066883;27;20051;-88
2022/08/01 03:35:37;;;;;;;7.90;3.58;;;17.50;99.90;;;;;;5068359;28;20513;-88
2022/08/01 03:38:07;;;;;;;8.98;3.80;;;17.50;99.90;;;;;;5087375;27;20054;-88
2022/08/01 03:40:40;;;;;;;8.88;4.15;;;17.50;99.90;;;;;;5064702;27;20536;-88
2022/08/01 03:43:18;;;;;;;9.05;3.92;;;17.50;99.90;;;;;;5073061;27;20510;-88
2022/08/01 03:45:51;;;;;;;8.05;4.00;;;17.40;99.90;;;;;;5066495;27;20043;-87
2022/08/01 03:48:19;;;;;;;9.13;3.58;;;17.40;99.90;;;;;;5093407;27;20061;-88
2022/08/01 03:50:50;;;;;;;9.25;3.60;;;17.40;99.90;;;;;;5069859;27;20125;-89
2022/08/01 03:53:22;;;;;;;6.65;3.83;;;17.40;99.90;;;;;;5074606;27;20043;-90
2022/08/01 03:55:50;;;;;;;9.18;4.15;;;17.40;99.90;;;;;;5080705;27;20055;-88
2022/08/01 03:58:17;;;;;;;9.63;4.50;;;17.40;99.90;;;;;;5074535;27;20089;-89
2022/08/01 04:00:44;;;;;;;9.52;4.10;;;17.40;99.90;;;;;;5073865;27;20058;-88
2022/08/01 04:03:12;;;;;;;9.88;4.28;;;17.40;99.90;;;;;;5089604;27;20039;-87
2022/08/01 04:05:41;;;;;;;8.00;4.28;;;17.40;99.90;;;;;;5073481;27;20051;-87
2022/08/01 04:08:07;;;;;;;9.55;3.80;;;17.40;99.90;;;;;;5069829;27;20048;-88
2022/08/01 04:10:34;;;;;;;9.20;3.50;;;17.40;99.90;;;;;;5058961;27;20079;-88
2022/08/01 04:13:00;;;;;;;10.25;4.07;;;17.30;99.90;;;;;;5086504;27;20075;-88
2022/08/01 04:15:26;;;;;;;8.25;3.90;;;17.30;99.90;;;;;;5078201;27;20047;-89
2022/08/01 04:17:53;;;;;;;11.18;4.18;;;17.30;99.90;;;;;;5062423;27;20046;-89
2022/08/01 04:20:20;;;;;;;11.77;4.55;;;17.40;99.90;;;;;;5074781;27;20067;-88
2022/08/01 04:22:47;;;;;;;12.43;4.50;;;17.40;99.90;;;;;;5057793;27;20043;-89
2022/08/01 04:25:34;;;;;;;8.57;4.53;;;17.40;99.90;;;;;;5077485;27;20552;-88
2022/08/01 04:28:05;;;;;;;12.48;4.70;;;17.40;99.90;;;;;;5090635;27;20099;-89
2022/08/01 04:30:34;;;;;;;12.82;4.82;;;17.40;99.90;;;;;;5078841;27;20050;-88
2022/08/01 04:33:02;;;;;;;9.57;4.63;;;17.40;99.90;;;;;;5092054;27;20565;-88
2022/08/01 04:35:29;;;;;;;14.73;5.50;;;17.40;99.90;;;;;;5075517;27;20043;-86
2022/08/01 04:37:59;;;;;;;11.05;4.75;;;17.40;99.90;;;;;;5098852;27;20072;-87
2022/08/01 04:40:26;;;;;;;15.20;5.47;;;17.30;99.90;;;;;;5077083;27;20467;-85
2022/08/01 04:42:52;;;;;;;11.18;5.63;;;17.30;99.90;;;;;;5060412;27;20050;-87
2022/08/01 04:45:24;;;;;;;10.77;5.40;;;17.30;99.90;;;;;;5091050;27;20043;-88
2022/08/01 04:47:51;;;;;;;9.82;5.65;;;17.30;99.90;;;;;;5076751;27;20112;-87
2022/08/01 04:50:17;;;;;;;14.82;5.60;;;17.30;99.90;;;;;;5099842;27;20367;-88
2022/08/01 04:52:47;;;;;;;14.45;5.50;;;17.40;99.90;;;;;;5083660;27;20051;-88
2022/08/01 04:55:13;;;;;;;11.23;5.50;;;17.30;99.90;;;;;;5089559;27;20039;-88
2022/08/01 04:57:42;;;;;;;10.15;4.72;;;17.30;99.90;;;;;;5094210;27;20436;-88
2022/08/01 05:00:18;;;;;;;12.95;4.85;;;17.30;99.90;;;;;;5127591;27;20082;-87
2022/08/01 05:02:46;;;;;;;12.25;5.10;;;17.30;99.90;;;;;;5116524;27;20031;-86
2022/08/01 05:05:12;;;;;;;8.02;4.38;;;17.30;99.90;;;;;;5071945;27;20537;-87
2022/08/01 05:07:38;;;;;;;12.50;4.25;;;17.20;99.90;;;;;;5098416;27;20054;-87
2022/08/01 05:10:05;;;;;;;10.60;4.45;;;17.20;99.90;;;;;;5098660;27;20258;-89
2022/08/01 05:12:32;;;;;;;10.13;4.25;;;17.20;99.90;;;;;;5099427;27;20125;-88
2022/08/01 05:14:59;;;;;;;15.65;4.72;;;17.20;99.90;;;;;;5050557;27;20673;-88
2022/08/01 05:17:25;;;;;;;8.80;3.83;;;17.10;99.90;;;;;;5072755;27;20498;-85
2022/08/01 05:19:52;;;;;;;12.48;4.03;;;17.10;99.90;;;;;;5062837;27;20045;-85
2022/08/01 05:22:18;;;;;;;7.68;3.95;;;17.10;99.90;;;;;;5084379;27;20565;-82
2022/08/01 05:24:45;;;;;;;10.77;4.30;;;17.10;99.90;;;;;;5059261;27;20677;-86
2022/08/01 05:27:13;;;;;;;12.30;4.47;;;17.10;99.90;;;;;;5116292;27;20118;-87
2022/08/01 05:29:39;;;;;;;11.38;4.63;;;17.10;99.90;;;;;;5079152;27;20039;-90
2022/08/01 05:32:06;;;;;;;9.55;4.10;;;17.10;99.90;;;;;;5097912;27;20085;-88
2022/08/01 05:34:32;;;;;;;16.27;4.82;;;17.10;99.90;;;;;;5084352;27;20105;-90
2022/08/01 05:36:58;;;;;;;17.75;5.55;;;17.20;99.90;;;;;;5085211;27;20039;-91
2022/08/01 05:39:25;;;;;;;11.20;4.45;;;17.20;99.90;;;;;;5081041;27;20039;-91
2022/08/01 05:41:51;;;;;;;16.08;5.32;;;17.20;99.90;;;;;;5063306;27;20049;-95
2022/08/01 05:44:19;;;;;;;12.25;4.32;;;17.20;99.90;;;;;;5082556;27;20055;-92
2022/08/01 05:46:48;;;;;;;12.25;5.00;;;17.20;99.90;;;;;;5061819;27;20042;-89
2022/08/01 05:49:15;;;;;;;10.90;4.25;;;17.30;99.90;;;;;;5077119;27;20042;-91
2022/08/01 05:51:41;;;;;;;14.20;4.32;;;17.40;99.90;;;;;;5062394;27;20042;-93
2022/08/01 05:54:08;;;;;;;18.02;4.90;;;17.40;99.90;;;;;;5068875;27;20105;-90
2022/08/01 05:56:34;;;;;;;15.15;4.90;;;17.40;99.90;;;;;;5082116;27;20590;-86
2022/08/01 05:59:00;;;;;;;11.77;5.65;;;17.50;99.90;;;;;;5091264;27;20125;-87
2022/08/01 06:01:26;;;;;;;13.30;5.43;;;17.50;99.90;;;;;;5099361;27;20069;-88
2022/08/01 06:03:54;;;;;;;17.15;4.95;;;17.60;99.90;;;;;;5099306;27;20157;-86
2022/08/01 06:06:23;;;;;;;14.23;5.30;;;17.60;99.90;;;;;;5110356;27;20110;-88
2022/08/01 06:08:51;;;;;;;16.83;6.93;;;17.60;99.90;;;;;;5075784;27;20045;-91
2022/08/01 06:11:17;;;;;;;16.38;6.50;;;17.70;99.90;;;;;;5107678;27;20099;-92
2022/08/01 06:13:44;;;;;;;15.20;5.32;;;17.70;99.90;;;;;;5050285;27;20046;-89
2022/08/01 06:16:10;;;;;;;14.45;4.97;;;17.80;99.90;;;;;;5091802;27;20081;-87
2022/08/01 06:18:36;;;;;;;14.00;5.00;;;17.80;99.90;;;;;;5070270;27;20062;-87
2022/08/01 06:21:02;;;;;;;14.02;5.10;;;17.80;99.90;;;;;;5057651;27;20409;-87
2022/08/01 06:23:29;;;;;;;16.15;6.85;;;17.90;99.90;;;;;;5079789;27;20128;-88
2022/08/01 06:25:55;;;;;;;12.57;5.15;;;18.00;99.90;;;;;;5082616;27;20046;-87
2022/08/01 06:28:22;;;;;;;11.15;4.93;;;18.20;99.90;;;;;;5075621;27;20506;-86
2022/08/01 06:30:48;;;;;;;13.52;4.38;;;18.30;99.90;;;;;;5053624;27;20074;-85
2022/08/01 06:33:14;;;;;;;11.27;3.60;;;18.40;99.90;;;;;;5076785;27;20050;-86
2022/08/01 06:35:41;;;;;;;17.02;4.47;;;18.50;99.90;;;;;;5060752;27;20043;-85
2022/08/01 06:38:21;;;;;;;15.15;3.97;;;18.50;99.90;;;;;;5054341;27;20058;-93
2022/08/01 06:41:12;;;;;;;16.25;3.45;;;18.50;99.90;;;;;;5086459;27;20593;-91
2022/08/01 06:43:39;;;;;;;16.38;9.07;;;18.50;99.90;;;;;;5069577;27;20464;-89
2022/08/01 06:46:05;;;;;;;16.63;6.28;;;18.60;99.90;;;;;;5080324;27;20039;-88
2022/08/01 06:48:39;;;;;;;15.82;4.28;;;18.70;99.90;;;;;;5074665;27;20046;-87
2022/08/01 06:51:08;;;;;;;15.23;6.53;;;18.70;99.90;;;;;;5086912;27;20054;-87
2022/08/01 06:53:38;;;;;;;11.45;4.22;;;18.80;99.90;;;;;;5080214;27;20114;-88
2022/08/01 06:56:05;;;;;;;19.83;5.25;;;18.60;99.90;;;;;;5088959;27;20047;-88
2022/08/01 06:58:32;;;;;;;15.90;3.47;;;18.60;99.90;;;;;;5073793;27;20046;-85
2022/08/01 07:00:58;;;;;;;15.68;4.47;;;18.60;99.90;;;;;;5054267;27;20051;-86
2022/08/01 07:03:24;;;;;;;12.25;3.42;;;18.60;99.90;;;;;;5105122;27;20116;-85
2022/08/01 07:05:50;;;;;;;13.55;3.33;;;18.60;99.90;;;;;;5089066;27;20046;-85
2022/08/01 07:08:20;;;;;;;12.85;3.67;;;18.60;99.90;;;;;;5092344;27;20581;-86
2022/08/01 07:10:46;;;;;;;12.45;3.88;;;18.50;99.90;;;;;;5072553;27;20050;-87
2022/08/01 07:13:12;;;;;;;12.05;3.30;;;18.50;99.90;;;;;;5072946;27;20531;-90
2022/08/01 07:15:39;;;;;;;14.52;4.20;;;18.50;99.90;;;;;;5054397;27;20047;-89
2022/08/01 07:18:05;;;;;;;13.45;3.40;;;18.60;99.90;;;;;;5055787;27;20530;-89
2022/08/01 07:20:32;;;;;;;15.10;5.53;;;18.60;99.90;;;;;;5073349;27;20049;-89
2022/08/01 07:22:58;;;;;;;12.18;3.47;;;18.60;99.90;;;;;;5089024;27;20444;-88
2022/08/01 07:25:24;;;;;;;16.10;4.63;;;18.60;99.90;;;;;;5093980;27;20047;-88
2022/08/01 07:27:50;;;;;;;14.70;4.97;;;18.60;99.90;;;;;;5070707;27;20046;-88
2022/08/01 07:30:17;;;;;;;13.88;3.40;;;18.50;99.90;;;;;;5090422;27;20039;-88
2022/08/01 07:32:43;;;;;;;15.88;4.28;;;18.50;99.90;;;;;;5080387;27;20074;-87
2022/08/01 07:35:12;;;;;;;15.05;4.40;;;18.30;99.90;;;;;;5088131;27;20047;-88
2022/08/01 07:37:39;;;;;;;13.82;4.13;;;18.20;99.90;;;;;;5087270;27;20800;-89
2022/08/01 07:40:05;;;;;;;15.70;4.20;;;18.20;99.90;;;;;;5093863;27;20830;-89
2022/08/01 07:42:32;;;;;;;14.05;3.95;;;18.30;99.90;;;;;;5059325;27;20138;-89
2022/08/01 07:44:58;;;;;;;15.57;4.10;;;18.30;99.90;;;;;;5075475;27;20055;-89
2022/08/01 07:47:25;;;;;;;22.35;5.50;;;18.40;99.90;;;;;;5074107;27;20046;-90
2022/08/01 07:49:52;;;;;;;17.55;4.63;;;18.50;99.90;;;;;;5078262;27;20038;-87
2022/08/01 07:52:19;;;;;;;16.70;4.07;;;18.40;99.90;;;;;;5056296;27;20121;-88
2022/08/01 07:54:45;;;;;;;15.02;4.07;;;18.50;99.90;;;;;;5076990;27;20125;-88
2022/08/01 07:57:12;;;;;;;14.18;3.50;;;18.60;99.90;;;;;;5045666;27;20123;-87
2022/08/01 07:59:38;;;;;;;17.75;4.90;;;18.80;99.90;;;;;;5078559;27;20043;-88
2022/08/01 08:02:04;;;;;;;21.23;4.55;;;18.70;99.90;;;;;;5093812;27;20118;-89
2022/08/01 08:04:30;;;;;;;16.70;3.63;;;18.70;99.90;;;;;;5077531;27;20098;-87
2022/08/01 08:06:56;;;;;;;20.75;4.70;;;19.00;99.90;;;;;;5076687;27;20581;-88
2022/08/01 08:09:22;;;;;;;13.85;3.97;;;18.90;99.90;;;;;;5095437;27;20042;-89
2022/08/01 08:11:49;;;;;;;15.93;4.18;;;19.00;99.90;;;;;;5077125;27;20045;-89
2022/08/01 08:14:16;;;;;;;16.88;4.15;;;19.10;99.90;;;;;;5060529;27;20050;-88
2022/08/01 08:16:43;;;;;;;17.17;4.07;;;19.20;99.90;;;;;;5076564;27;20057;-88
2022/08/01 08:19:09;;;;;;;14.73;4.60;;;19.30;99.90;;;;;;5076577;27;20039;-89
2022/08/01 08:21:36;;;;;;;12.55;3.20;;;19.50;99.90;;;;;;5095906;27;20055;-90
2022/08/01 08:24:20;;;;;;;15.35;3.75;;;19.80;99.90;;;;;;5054170;27;20451;-89
2022/08/01 08:26:53;;;;;;;20.73;5.93;;;20.00;99.90;;;;;;5064380;27;20074;-90
2022/08/01 08:29:26;;;;;;;15.13;5.57;;;20.10;99.90;;;;;;5083472;27;20046;-92
2022/08/01 08:31:54;;;;;;;17.35;7.20;;;20.40;99.90;;;;;;5087225;27;20046;-91
2022/08/01 08:34:20;;;;;;;13.50;4.10;;;20.70;99.90;;;;;;5096821;27;20023;-91
2022/08/01 08:36:48;;;;;;;14.63;3.53;;;21.30;99.90;;;;;;5117322;27;20045;-90
2022/08/01 08:39:14;;;;;;;11.25;3.35;;;21.50;99.90;;;;;;5112360;27;20042;-87
2022/08/01 08:41:41;;;;;;;11.07;3.30;;;21.50;99.90;;;;;;5115355;27;20071;-88
2022/08/01 08:44:09;;;;;;;11.35;3.75;;;21.40;99.90;;;;;;5090298;27;20051;-88
2022/08/01 08:46:41;;;;;;;12.18;2.90;;;21.40;99.90;;;;;;5116957;27;20110;-87
2022/08/01 08:49:08;;;;;;;11.25;2.85;;;21.40;99.90;;;;;;5084097;27;20930;-88
2022/08/01 08:51:39;;;;;;;16.40;6.07;;;21.80;99.90;;;;;;5072813;27;20248;-88
2022/08/01 08:54:07;;;;;;;11.77;2.67;;;22.10;99.90;;;;;;5083924;27;20570;-87
2022/08/01 08:56:35;;;;;;;12.18;2.47;;;22.40;99.90;;;;;;5064500;27;20030;-89
2022/08/01 08:59:02;;;;;;;12.25;3.08;;;22.80;99.90;;;;;;5073406;27;20069;-91
2022/08/01 09:01:32;;;;;;;15.85;7.50;;;23.40;99.90;;;;;;5062431;27;20043;-88
2022/08/01 09:03:58;;;;;;;13.98;3.38;;;23.50;99.90;;;;;;5076491;27;20529;-84
2022/08/01 09:06:25;;;;;;;16.63;5.88;;;23.50;99.90;;;;;;5075540;27;20375;-86
2022/08/01 09:08:51;;;;;;;17.00;8.65;;;23.50;99.90;;;;;;5084265;27;20499;-84
2022/08/01 09:11:17;;;;;;;8.85;2.55;;;23.80;99.90;;;;;;5106751;27;20067;-84
2022/08/01 09:14:03;;;;;;;10.98;6.15;;;23.90;99.90;;;;;;5074923;27;20046;-85
2022/08/01 09:16:30;;;;;;;13.10;2.90;;;23.70;99.90;;;;;;5120794;27;20043;-83
2022/08/01 09:19:15;;;;;;;13.38;3.08;;;23.60;99.90;;;;;;5054599;27;20057;-84
2022/08/01 09:21:59;;;;;;;21.30;14.60;;;23.40;99.90;;;;;;5075572;27;20077;-87
2022/08/01 09:24:27;;;;;;;26.45;20.50;;;23.20;99.90;;;;;;5063624;27;20043;-89
2022/08/01 09:26:54;;;;;;;12.93;2.85;;;23.30;99.90;;;;;;5091456;27;20545;-91
2022/08/01 09:29:24;;;;;;;9.98;2.60;;;23.90;99.90;;;;;;5075747;27;20043;-88
2022/08/01 09:31:51;;;;;;;9.48;3.55;;;23.60;99.90;;;;;;5107699;27;20062;-87
2022/08/01 09:34:24;;;;;;;13.52;2.95;;;24.10;99.90;;;;;;5060357;27;20038;-84
2022/08/01 09:36:56;;;;;;;11.50;2.70;;;24.60;99.90;;;;;;5087280;27;20403;-86
2022/08/01 09:39:25;;;;;;;15.82;10.05;;;24.60;99.90;;;;;;5074844;27;20063;-90
2022/08/01 09:41:54;;;;;;;34.97;31.20;;;24.40;99.90;;;;;;5110231;27;20838;-90
2022/08/01 09:44:40;;;;;;;10.82;4.97;;;24.70;99.90;;;;;;5086220;27;20048;-88
2022/08/01 09:47:06;;;;;;;11.38;4.15;;;24.80;99.90;;;;;;5082449;28;20040;-90
2022/08/01 09:49:35;;;;;;;10.68;3.97;;;24.80;99.90;;;;;;5076961;27;20141;-88
2022/08/01 09:52:16;;;;;;;5.88;2.13;;;24.60;99.90;;;;;;5084687;27;20044;-90
2022/08/01 09:54:52;;;;;;;11.15;3.17;;;24.30;99.90;;;;;;5073369;27;21220;-87
2022/08/01 09:57:19;;;;;;;16.92;11.73;;;24.00;99.90;;;;;;5069045;27;20044;-88
2022/08/01 09:59:50;;;;;;;7.68;2.08;;;23.90;99.90;;;;;;5065644;27;20105;-88
2022/08/01 10:02:35;;;;;;;72.17;65.77;;;24.10;99.90;;;;;;5091328;27;20043;-87
2022/08/01 10:05:07;;;;;;;15.40;7.07;;;24.80;99.90;;;;;;5094153;27;20454;-90
2022/08/01 10:07:35;;;;;;;15.52;9.82;;;25.00;99.90;;;;;;5073847;27;20538;-87
2022/08/01 10:10:15;;;;;;;7.95;1.75;;;25.40;99.90;;;;;;5062419;27;20039;-88
2022/08/01 10:12:42;;;;;;;8.95;2.40;;;25.80;99.90;;;;;;5069670;27;20128;-90
2022/08/01 10:15:10;;;;;;;13.57;9.88;;;25.40;99.90;;;;;;5087846;27;20046;-90
2022/08/01 10:17:39;;;;;;;7.72;1.63;;;24.60;99.90;;;;;;5067243;27;20095;-92
2022/08/01 10:20:07;;;;;;;8.00;1.95;;;24.50;99.90;;;;;;5070502;27;20051;-93
2022/08/01 10:22:34;;;;;;;10.80;7.30;;;24.70;99.90;;;;;;5065444;28;20138;-92
2022/08/01 10:25:04;;;;;;;8.90;1.80;;;25.00;99.90;;;;;;5117063;27;20172;-92
2022/08/01 10:27:36;;;;;;;8.15;2.78;;;25.20;99.90;;;;;;5108358;27;20114;-92
2022/08/01 10:30:04;;;;;;;7.25;2.25;;;25.20;99.90;;;;;;5093762;27;20406;-93
2022/08/01 10:32:32;;;;;;;9.68;4.57;;;25.30;99.90;;;;;;5053656;27;20050;-91
2022/08/01 10:35:00;;;;;;;7.43;1.95;;;25.30;99.90;;;;;;5089349;27;20059;-92
2022/08/01 10:37:27;;;;;;;10.40;1.98;;;25.00;99.90;;;;;;5072210;27;20092;-93
2022/08/01 10:39:57;;;;;;;7.50;1.42;;;25.10;99.90;;;;;;5067028;28;20162;-93
2022/08/01 10:42:24;;;;;;;6.57;1.67;;;25.20;99.90;;;;;;5083660;27;20047;-91
2022/08/01 10:44:51;;;;;;;7.97;2.40;;;25.30;95.10;;;;;;5106147;28;20126;-90
2022/08/01 10:47:42;;;;;;;10.85;4.07;;;25.30;96.90;;;;;;5100592;28;20032;-89
2022/08/01 10:50:23;;;;;;;9.60;1.90;;;25.50;97.40;;;;;;5082228;28;20043;-90
2022/08/01 10:53:08;;;;;;;;;;;25.40;94.50;;;;;;5073025;28;20501;-89
2022/08/01 10:55:55;;;;;;;8.35;1.60;;;25.60;95.90;;;;;;5086162;28;19924;-90
2022/08/01 10:58:28;;;;;;;8.50;2.78;;;25.90;94.50;;;;;;5074142;28;20103;-92
2022/08/01 11:01:13;;;;;;;7.13;1.95;;;26.10;96.10;;;;;;5087871;28;20051;-91
2022/08/01 11:03:56;;;;;;;8.43;2.35;;;26.10;95.30;;;;;;5067409;28;20048;-87
2022/08/01 11:06:33;;;;;;;9.00;5.47;;;26.20;93.40;;;;;;5072448;28;20047;-88
2022/08/01 11:09:14;;;;;;;8.75;3.95;;;25.40;96.20;;;;;;5078013;28;20072;-88
2022/08/01 11:12:01;;;;;;;9.15;2.05;;;25.10;91.40;;;;;;5064075;28;20047;-88
2022/08/01 11:14:29;;;;;;;8.93;1.70;;;25.00;92.70;;;;;;5049971;28;20441;-89
2022/08/01 11:16:56;;;;;;;6.45;1.60;;;25.50;96.70;;;;;;5114391;28;20047;-89
2022/08/01 11:19:22;;;;;;;7.47;1.58;;;25.60;95.70;;;;;;5064442;28;20428;-89
2022/08/01 11:21:57;;;;;;;7.35;1.58;;;25.80;94.20;;;;;;5063727;28;20039;-88
2022/08/01 11:24:48;;;;;;;6.10;1.45;;;25.50;91.60;;;;;;5067063;28;20174;-89
2022/08/01 11:27:30;;;;;;;43.35;39.28;;;25.30;90.80;;;;;;5089838;28;20039;-89
2022/08/01 11:30:09;;;;;;;5.97;1.63;;;26.00;91.20;;;;;;5063987;28;20047;-88
2022/08/01 11:32:54;;;;;;;9.10;3.13;;;26.30;86.60;;;;;;5067255;28;20047;-88
2022/08/01 11:35:23;;;;;;;5.90;2.20;;;26.00;83.30;;;;;;5079571;28;20108;-88
2022/08/01 11:37:51;;;;;;;5.95;1.55;;;26.50;91.00;;;;;;5068563;28;20074;-89
2022/08/01 11:40:25;;;;;;;5.75;1.33;;;26.50;89.50;;;;;;5083239;28;20062;-88
2022/08/01 11:43:17;;;;;;;8.32;2.97;;;26.50;86.20;;;;;;5051649;28;20111;-90
2022/08/01 11:45:56;;;;;;;8.00;2.25;;;26.50;81.30;;;;;;5069525;28;20067;-88
2022/08/01 11:48:25;;;;;;;7.55;1.88;;;26.40;81.70;;;;;;5070311;28;20499;-88
2022/08/01 11:50:55;;;;;;;6.38;1.50;;;26.40;83.50;;;;;;5066033;28;20043;-88
2022/08/01 11:53:22;;;;;;;;;;;26.40;80.80;;;;;;5085354;28;20047;-90
2022/08/01 11:55:51;;;;;;;6.57;1.20;;;25.80;79.40;;;;;;5067747;28;20010;-88
2022/08/01 11:58:23;;;;;;;4.13;1.60;;;26.10;88.80;;;;;;5067769;28;20039;-91
2022/08/01 12:00:55;;;;;;;4.78;1.40;;;26.40;81.90;;;;;;5071125;28;20119;-93
2022/08/01 12:03:27;;;;;;;4.90;1.35;;;26.30;79.00;;;;;;5074850;27;20071;-94
2022/08/01 12:05:55;;;;;;;6.30;1.48;;;26.80;81.40;;;;;;5094644;27;20045;-92
2022/08/01 12:08:32;;;;;;;26.35;23.52;;;26.50;81.30;;;;;;5066201;27;20122;-87
2022/08/01 12:11:01;;;;;;;7.22;1.92;;;26.20;79.60;;;;;;5071581;27;20376;-90
2022/08/01 12:13:28;;;;;;;18.77;16.83;;;26.00;82.10;;;;;;5069336;27;20592;-86
2022/08/01 12:15:54;;;;;;;5.90;1.42;;;25.60;83.70;;;;;;5074915;27;20173;-89
2022/08/01 12:18:20;;;;;;;7.35;1.52;;;25.20;84.00;;;;;;5079454;27;20019;-88
2022/08/01 12:20:47;;;;;;;6.68;1.85;;;25.00;86.70;;;;;;5114936;27;20050;-88
2022/08/01 12:23:15;;;;;;;8.25;4.07;;;25.00;90.10;;;;;;5114491;27;20398;-88
2022/08/01 12:25:47;;;;;;;6.03;1.38;;;24.90;87.20;;;;;;5096335;28;20023;-90
2022/08/01 12:28:13;;;;;;;6.85;1.60;;;24.90;85.30;;;;;;5086553;27;20497;-87
2022/08/01 12:30:40;;;;;;;7.35;1.70;;;25.40;89.80;;;;;;5093101;27;21233;-91
2022/08/01 12:33:09;;;;;;;7.05;1.90;;;25.50;89.50;;;;;;5067986;27;20177;-88
2022/08/01 12:35:38;;;;;;;6.85;1.95;;;25.40;85.50;;;;;;5089323;27;20039;-88
2022/08/01 12:38:18;;;;;;;6.75;1.60;;;25.40;88.00;;;;;;5086907;27;20051;-90
2022/08/01 12:40:46;;;;;;;6.43;1.58;;;25.40;84.30;;;;;;5067426;28;20052;-90
2022/08/01 12:43:18;;;;;;;5.97;1.83;;;25.30;85.10;;;;;;5086298;27;20043;-90
2022/08/01 12:45:48;;;;;;;6.78;1.48;;;25.30;83.90;;;;;;5103320;27;20126;-90
2022/08/01 12:48:18;;;;;;;6.82;1.85;;;25.80;84.90;;;;;;5073493;27;20084;-89
2022/08/01 12:50:50;;;;;;;8.52;3.60;;;26.40;81.50;;;;;;5084714;27;20073;-89
2022/08/01 12:53:18;;;;;;;6.07;1.58;;;26.80;80.40;;;;;;5066705;27;20160;-88